Virtual LH

Virtual LH. There's no better way to fly
Since 2013.



AIRPORT MAP

METAR AND TAF INFORMATION

METAR FOR GCFV
ADDS - METARS form results

(2252 UTC 08 July 2020)
Data provider http://aviationweather.gov/metar/data/
 
METAR text: GCFV 082230Z AUTO 03008KT 7000 NCD 24/19 Q1016
Conditions at: GCFV (FUERTEVENTURA AR, ES) observed 2230 UTC 08 July 2020
Temperature: 24.0°C (75°F)
Dewpoint: 19.0°C (66°F) [RH = 74%]
Pressure (altimeter): 30.00 inches Hg (1016.0 mb)
Winds: from the NNE (30 degrees) at 9 MPH (8 knots; 4.1 m/s)
Visibility: 4 miles ( 7 km)
Ceiling: at least 12,000 feet AGL
Clouds: sky clear below 12,000 feet AGL
Weather: no significant weather observed at this time

METAR text: GCFV 082200Z AUTO 02008KT CAVOK 25/19 Q1016
Conditions at: GCFV (FUERTEVENTURA AR, ES) observed 2200 UTC 08 July 2020
Temperature: 25.0°C (77°F)
Dewpoint: 19.0°C (66°F) [RH = 69%]
Pressure (altimeter): 30.00 inches Hg (1016.0 mb)
Winds: from the NNE (20 degrees) at 9 MPH (8 knots; 4.1 m/s)
Visibility: 6 or more miles (10+ km)
Ceiling: ceiling and visibility are OK
Clouds: unknown
Weather: no significant weather observed at this time

Forecast for: GCFV (FUERTEVENTURA AR, ES)
Text: TAF GCFV 082000Z 0821/0921 02010KT CAVOK TX27/0915Z TN21/0906Z
Forecast period: 2100 UTC 08 July 2020 to 2100 UTC 09 July 2020
Forecast type: FROM: standard forecast or significant change
Winds: from the NNE (20 degrees) at 12 MPH (10 knots; 5.1 m/s)
Visibility: 6 or more miles 10+ km)
Ceiling: unknown
Clouds: missing
Weather: no significant weather forecast for this period

RUNWAY INFORMATION

Runway 01 Runway length 7874 ft Runway width 148 ft
Runway elevation 37 ft Runway displaced threshold 0 ft Runway heading 2
Runway 19 Runway length 7874 ft Runway width 148 ft
Runway elevation 75 ft Runway displaced threshold 0 ft Runway heading 182

AIRPORT FREQUENCIES

Type APP Name CANARIAS A Frequency 129.3 MHZ
Type ATIS Name ATIS Frequency 118.65 MHZ
Type GND Name GND Frequency 121.7 MHZ
Type TWR Name TWR Frequency 118.5 MHZ

AIRPORT NEAR NAVIGATION AIDS

Type VOR-DME Name Fuerteventura Frequency 114100 KHZ